sensor_id;sensor_type;location;lat;lon;timestamp;P1;durP1;ratioP1;P2;durP2;ratioP2
7080;SDS011;3582;51.506;11.948;2023-03-29T00:00:10;9.30;;;4.32;;
7080;SDS011;3582;51.506;11.948;2023-03-29T00:02:41;9.32;;;5.10;;
7080;SDS011;3582;51.506;11.948;2023-03-29T00:05:12;6.57;;;4.32;;
7080;SDS011;3582;51.506;11.948;2023-03-29T00:07:38;4.38;;;3.90;;
7080;SDS011;3582;51.506;11.948;2023-03-29T00:10:05;6.82;;;5.00;;
7080;SDS011;3582;51.506;11.948;2023-03-29T00:12:31;12.13;;;5.25;;
7080;SDS011;3582;51.506;11.948;2023-03-29T00:14:58;5.70;;;4.38;;
7080;SDS011;3582;51.506;11.948;2023-03-29T00:17:24;6.80;;;4.20;;
7080;SDS011;3582;51.506;11.948;2023-03-29T00:19:50;6.72;;;4.85;;
7080;SDS011;3582;51.506;11.948;2023-03-29T00:22:16;7.27;;;6.00;;
7080;SDS011;3582;51.506;11.948;2023-03-29T00:24:42;11.63;;;5.50;;
7080;SDS011;3582;51.506;11.948;2023-03-29T00:27:08;8.87;;;5.63;;
7080;SDS011;3582;51.506;11.948;2023-03-29T00:29:33;7.03;;;3.70;;
7080;SDS011;3582;51.506;11.948;2023-03-29T00:31:59;7.47;;;4.70;;
7080;SDS011;3582;51.506;11.948;2023-03-29T00:34:26;4.33;;;3.93;;
7080;SDS011;3582;51.506;11.948;2023-03-29T00:36:55;9.23;;;4.03;;
7080;SDS011;3582;51.506;11.948;2023-03-29T00:39:23;4.85;;;3.92;;
7080;SDS011;3582;51.506;11.948;2023-03-29T00:41:49;7.13;;;5.50;;
7080;SDS011;3582;51.506;11.948;2023-03-29T00:47:00;5.40;;;4.20;;
7080;SDS011;3582;51.506;11.948;2023-03-29T00:49:26;6.70;;;4.43;;
7080;SDS011;3582;51.506;11.948;2023-03-29T00:51:52;4.50;;;3.60;;
7080;SDS011;3582;51.506;11.948;2023-03-29T00:54:18;9.57;;;4.13;;
7080;SDS011;3582;51.506;11.948;2023-03-29T00:56:44;8.70;;;4.10;;
7080;SDS011;3582;51.506;11.948;2023-03-29T00:59:12;8.85;;;4.35;;
7080;SDS011;3582;51.506;11.948;2023-03-29T01:06:42;5.95;;;3.92;;
7080;SDS011;3582;51.506;11.948;2023-03-29T01:09:09;14.52;;;5.70;;
7080;SDS011;3582;51.506;11.948;2023-03-29T01:11:40;8.15;;;4.35;;
7080;SDS011;3582;51.506;11.948;2023-03-29T01:14:11;5.53;;;4.13;;
7080;SDS011;3582;51.506;11.948;2023-03-29T01:16:39;6.78;;;4.03;;
7080;SDS011;3582;51.506;11.948;2023-03-29T01:19:06;6.63;;;4.50;;
7080;SDS011;3582;51.506;11.948;2023-03-29T01:21:38;5.00;;;3.60;;
7080;SDS011;3582;51.506;11.948;2023-03-29T01:35:07;6.80;;;3.90;;
7080;SDS011;3582;51.506;11.948;2023-03-29T01:37:36;6.40;;;4.63;;
7080;SDS011;3582;51.506;11.948;2023-03-29T01:40:03;8.27;;;3.83;;
7080;SDS011;3582;51.506;11.948;2023-03-29T01:42:41;3.85;;;3.00;;
7080;SDS011;3582;51.506;11.948;2023-03-29T01:45:18;5.20;;;4.10;;
7080;SDS011;3582;51.506;11.948;2023-03-29T01:50:24;4.13;;;3.75;;
7080;SDS011;3582;51.506;11.948;2023-03-29T01:52:56;6.40;;;4.10;;
7080;SDS011;3582;51.506;11.948;2023-03-29T01:55:29;5.65;;;3.90;;
7080;SDS011;3582;51.506;11.948;2023-03-29T01:57:56;7.07;;;3.85;;
7080;SDS011;3582;51.506;11.948;2023-03-29T02:00:25;5.00;;;4.22;;
7080;SDS011;3582;51.506;11.948;2023-03-29T02:02:52;7.20;;;4.18;;
7080;SDS011;3582;51.506;11.948;2023-03-29T02:05:19;5.85;;;3.63;;
7080;SDS011;3582;51.506;11.948;2023-03-29T02:07:48;4.38;;;3.95;;
7080;SDS011;3582;51.506;11.948;2023-03-29T02:10:15;9.68;;;3.88;;
7080;SDS011;3582;51.506;11.948;2023-03-29T02:12:42;8.57;;;3.95;;
7080;SDS011;3582;51.506;11.948;2023-03-29T02:15:12;13.43;;;4.53;;
7080;SDS011;3582;51.506;11.948;2023-03-29T02:17:38;8.75;;;4.90;;
7080;SDS011;3582;51.506;11.948;2023-03-29T02:22:40;4.85;;;3.80;;
7080;SDS011;3582;51.506;11.948;2023-03-29T02:25:08;8.35;;;4.40;;
7080;SDS011;3582;51.506;11.948;2023-03-29T02:27:34;6.10;;;4.32;;
7080;SDS011;3582;51.506;11.948;2023-03-29T02:30:01;6.07;;;3.80;;
7080;SDS011;3582;51.506;11.948;2023-03-29T02:35:13;5.43;;;3.40;;
7080;SDS011;3582;51.506;11.948;2023-03-29T02:37:41;4.72;;;4.20;;
7080;SDS011;3582;51.506;11.948;2023-03-29T02:40:08;8.98;;;4.45;;
7080;SDS011;3582;51.506;11.948;2023-03-29T02:42:37;7.53;;;4.03;;
7080;SDS011;3582;51.506;11.948;2023-03-29T02:45:03;5.25;;;4.75;;
7080;SDS011;3582;51.506;11.948;2023-03-29T02:47:31;9.93;;;4.60;;
7080;SDS011;3582;51.506;11.948;2023-03-29T02:49:58;9.27;;;4.75;;
7080;SDS011;3582;51.506;11.948;2023-03-29T02:52:25;5.95;;;3.85;;
7080;SDS011;3582;51.506;11.948;2023-03-29T02:54:53;6.30;;;4.55;;
7080;SDS011;3582;51.506;11.948;2023-03-29T02:57:20;5.53;;;3.72;;
7080;SDS011;3582;51.506;11.948;2023-03-29T02:59:50;6.88;;;4.55;;
7080;SDS011;3582;51.506;11.948;2023-03-29T03:02:16;6.53;;;4.10;;
7080;SDS011;3582;51.506;11.948;2023-03-29T03:04:42;10.43;;;4.27;;
7080;SDS011;3582;51.506;11.948;2023-03-29T03:07:08;8.35;;;7.53;;
7080;SDS011;3582;51.506;11.948;2023-03-29T03:09:34;6.17;;;4.17;;
7080;SDS011;3582;51.506;11.948;2023-03-29T03:12:00;4.47;;;3.90;;
7080;SDS011;3582;51.506;11.948;2023-03-29T03:14:26;6.57;;;4.57;;
7080;SDS011;3582;51.506;11.948;2023-03-29T03:16:53;5.63;;;4.10;;
7080;SDS011;3582;51.506;11.948;2023-03-29T03:19:19;10.23;;;4.90;;
7080;SDS011;3582;51.506;11.948;2023-03-29T03:21:45;7.82;;;4.22;;
7080;SDS011;3582;51.506;11.948;2023-03-29T03:24:11;12.15;;;5.60;;
7080;SDS011;3582;51.506;11.948;2023-03-29T03:26:37;15.35;;;5.10;;
7080;SDS011;3582;51.506;11.948;2023-03-29T03:29:03;10.80;;;4.68;;
7080;SDS011;3582;51.506;11.948;2023-03-29T03:31:30;5.28;;;4.80;;
7080;SDS011;3582;51.506;11.948;2023-03-29T03:33:57;15.15;;;5.97;;
7080;SDS011;3582;51.506;11.948;2023-03-29T03:36:23;8.70;;;5.25;;
7080;SDS011;3582;51.506;11.948;2023-03-29T03:38:50;9.75;;;5.53;;
7080;SDS011;3582;51.506;11.948;2023-03-29T03:41:17;7.75;;;6.18;;
7080;SDS011;3582;51.506;11.948;2023-03-29T03:43:43;6.97;;;6.03;;
7080;SDS011;3582;51.506;11.948;2023-03-29T03:46:12;8.93;;;6.40;;
7080;SDS011;3582;51.506;11.948;2023-03-29T03:48:38;10.30;;;7.07;;
7080;SDS011;3582;51.506;11.948;2023-03-29T03:51:04;19.20;;;6.67;;
7080;SDS011;3582;51.506;11.948;2023-03-29T03:53:30;13.20;;;8.30;;
7080;SDS011;3582;51.506;11.948;2023-03-29T03:55:57;16.42;;;8.32;;
7080;SDS011;3582;51.506;11.948;2023-03-29T03:58:26;7.68;;;6.90;;
7080;SDS011;3582;51.506;11.948;2023-03-29T04:00:52;11.90;;;6.22;;
7080;SDS011;3582;51.506;11.948;2023-03-29T04:03:18;12.65;;;6.13;;
7080;SDS011;3582;51.506;11.948;2023-03-29T04:05:45;6.13;;;5.60;;
7080;SDS011;3582;51.506;11.948;2023-03-29T04:08:12;9.65;;;5.85;;
7080;SDS011;3582;51.506;11.948;2023-03-29T04:10:39;7.82;;;5.75;;
7080;SDS011;3582;51.506;11.948;2023-03-29T04:13:05;7.22;;;4.35;;
7080;SDS011;3582;51.506;11.948;2023-03-29T04:15:32;10.90;;;5.22;;
7080;SDS011;3582;51.506;11.948;2023-03-29T04:17:58;9.45;;;5.63;;
7080;SDS011;3582;51.506;11.948;2023-03-29T04:20:25;7.75;;;4.85;;
7080;SDS011;3582;51.506;11.948;2023-03-29T04:22:51;5.18;;;4.78;;
7080;SDS011;3582;51.506;11.948;2023-03-29T04:25:17;19.40;;;6.25;;
7080;SDS011;3582;51.506;11.948;2023-03-29T04:27:44;9.38;;;5.63;;
7080;SDS011;3582;51.506;11.948;2023-03-29T04:30:10;10.13;;;5.10;;
7080;SDS011;3582;51.506;11.948;2023-03-29T04:32:37;6.07;;;4.75;;
7080;SDS011;3582;51.506;11.948;2023-03-29T04:35:03;11.57;;;5.13;;
7080;SDS011;3582;51.506;11.948;2023-03-29T04:37:29;17.13;;;5.35;;
7080;SDS011;3582;51.506;11.948;2023-03-29T04:39:55;10.00;;;6.40;;
7080;SDS011;3582;51.506;11.948;2023-03-29T04:42:24;16.80;;;7.28;;
7080;SDS011;3582;51.506;11.948;2023-03-29T04:44:50;17.07;;;6.43;;
7080;SDS011;3582;51.506;11.948;2023-03-29T04:47:17;11.25;;;7.25;;
7080;SDS011;3582;51.506;11.948;2023-03-29T04:49:43;23.05;;;9.65;;
7080;SDS011;3582;51.506;11.948;2023-03-29T04:52:09;13.80;;;7.15;;
7080;SDS011;3582;51.506;11.948;2023-03-29T04:54:35;6.00;;;5.43;;
7080;SDS011;3582;51.506;11.948;2023-03-29T04:57:01;12.30;;;6.90;;
7080;SDS011;3582;51.506;11.948;2023-03-29T04:59:27;21.50;;;6.50;;
7080;SDS011;3582;51.506;11.948;2023-03-29T05:01:53;39.63;;;10.67;;
7080;SDS011;3582;51.506;11.948;2023-03-29T05:04:19;14.43;;;6.33;;
7080;SDS011;3582;51.506;11.948;2023-03-29T05:06:45;17.23;;;7.50;;
7080;SDS011;3582;51.506;11.948;2023-03-29T05:09:11;10.50;;;6.60;;
7080;SDS011;3582;51.506;11.948;2023-03-29T05:11:37;10.77;;;7.20;;
7080;SDS011;3582;51.506;11.948;2023-03-29T05:14:03;17.40;;;7.33;;
7080;SDS011;3582;51.506;11.948;2023-03-29T05:16:31;11.88;;;7.47;;
7080;SDS011;3582;51.506;11.948;2023-03-29T05:18:59;24.75;;;7.38;;
7080;SDS011;3582;51.506;11.948;2023-03-29T05:21:26;17.88;;;7.70;;
7080;SDS011;3582;51.506;11.948;2023-03-29T05:23:55;10.43;;;6.15;;
7080;SDS011;3582;51.506;11.948;2023-03-29T05:26:21;13.00;;;7.37;;
7080;SDS011;3582;51.506;11.948;2023-03-29T05:28:48;15.52;;;6.50;;
7080;SDS011;3582;51.506;11.948;2023-03-29T05:31:14;11.65;;;7.18;;
7080;SDS011;3582;51.506;11.948;2023-03-29T05:33:41;7.88;;;5.35;;
7080;SDS011;3582;51.506;11.948;2023-03-29T05:36:08;14.10;;;9.07;;
7080;SDS011;3582;51.506;11.948;2023-03-29T05:38:35;9.57;;;5.63;;
7080;SDS011;3582;51.506;11.948;2023-03-29T05:41:02;15.48;;;6.82;;
7080;SDS011;3582;51.506;11.948;2023-03-29T05:43:28;7.93;;;4.95;;
7080;SDS011;3582;51.506;11.948;2023-03-29T05:45:54;7.90;;;4.30;;
7080;SDS011;3582;51.506;11.948;2023-03-29T05:48:21;7.75;;;5.57;;
7080;SDS011;3582;51.506;11.948;2023-03-29T05:50:51;9.85;;;5.25;;
7080;SDS011;3582;51.506;11.948;2023-03-29T05:53:17;7.20;;;4.63;;
7080;SDS011;3582;51.506;11.948;2023-03-29T05:55:44;7.13;;;4.47;;
7080;SDS011;3582;51.506;11.948;2023-03-29T05:58:10;12.73;;;7.55;;
7080;SDS011;3582;51.506;11.948;2023-03-29T06:00:37;8.23;;;5.78;;
7080;SDS011;3582;51.506;11.948;2023-03-29T06:03:03;12.30;;;6.10;;
7080;SDS011;3582;51.506;11.948;2023-03-29T06:05:29;6.10;;;4.90;;
7080;SDS011;3582;51.506;11.948;2023-03-29T06:07:55;9.80;;;5.47;;
7080;SDS011;3582;51.506;11.948;2023-03-29T06:10:22;13.30;;;7.18;;
7080;SDS011;3582;51.506;11.948;2023-03-29T06:12:48;10.10;;;4.65;;
7080;SDS011;3582;51.506;11.948;2023-03-29T06:15:15;10.70;;;5.30;;
7080;SDS011;3582;51.506;11.948;2023-03-29T06:17:42;11.93;;;7.07;;
7080;SDS011;3582;51.506;11.948;2023-03-29T06:20:11;5.97;;;5.05;;
7080;SDS011;3582;51.506;11.948;2023-03-29T06:22:37;9.48;;;5.00;;
7080;SDS011;3582;51.506;11.948;2023-03-29T06:25:04;12.35;;;5.68;;
7080;SDS011;3582;51.506;11.948;2023-03-29T06:27:30;14.15;;;6.63;;
7080;SDS011;3582;51.506;11.948;2023-03-29T06:29:57;9.05;;;6.63;;
7080;SDS011;3582;51.506;11.948;2023-03-29T06:32:23;19.40;;;5.55;;
7080;SDS011;3582;51.506;11.948;2023-03-29T06:34:49;8.13;;;5.00;;
7080;SDS011;3582;51.506;11.948;2023-03-29T06:37:15;6.70;;;5.97;;
7080;SDS011;3582;51.506;11.948;2023-03-29T06:39:41;12.63;;;6.33;;
7080;SDS011;3582;51.506;11.948;2023-03-29T06:42:07;15.87;;;5.40;;
7080;SDS011;3582;51.506;11.948;2023-03-29T06:44:33;9.95;;;5.82;;
7080;SDS011;3582;51.506;11.948;2023-03-29T06:47:00;12.38;;;8.77;;
7080;SDS011;3582;51.506;11.948;2023-03-29T06:49:26;9.60;;;6.77;;
7080;SDS011;3582;51.506;11.948;2023-03-29T06:51:52;9.07;;;6.40;;
7080;SDS011;3582;51.506;11.948;2023-03-29T06:54:18;8.60;;;6.28;;
7080;SDS011;3582;51.506;11.948;2023-03-29T06:56:44;8.57;;;7.47;;
7080;SDS011;3582;51.506;11.948;2023-03-29T06:59:11;8.15;;;7.20;;
7080;SDS011;3582;51.506;11.948;2023-03-29T07:01:37;9.15;;;8.23;;
7080;SDS011;3582;51.506;11.948;2023-03-29T07:04:03;6.60;;;5.90;;
7080;SDS011;3582;51.506;11.948;2023-03-29T07:06:33;7.90;;;6.30;;
7080;SDS011;3582;51.506;11.948;2023-03-29T07:09:00;6.75;;;6.15;;
7080;SDS011;3582;51.506;11.948;2023-03-29T07:11:30;12.82;;;8.70;;
7080;SDS011;3582;51.506;11.948;2023-03-29T07:13:57;6.53;;;5.97;;
7080;SDS011;3582;51.506;11.948;2023-03-29T07:16:23;10.93;;;5.23;;
7080;SDS011;3582;51.506;11.948;2023-03-29T07:18:49;17.27;;;9.02;;
7080;SDS011;3582;51.506;11.948;2023-03-29T07:21:15;9.00;;;6.10;;
7080;SDS011;3582;51.506;11.948;2023-03-29T07:23:41;11.27;;;6.13;;
7080;SDS011;3582;51.506;11.948;2023-03-29T07:26:07;12.60;;;5.82;;
7080;SDS011;3582;51.506;11.948;2023-03-29T07:28:34;5.38;;;4.88;;
7080;SDS011;3582;51.506;11.948;2023-03-29T07:31:04;7.40;;;5.57;;
7080;SDS011;3582;51.506;11.948;2023-03-29T07:33:30;9.90;;;6.55;;
7080;SDS011;3582;51.506;11.948;2023-03-29T07:35:56;14.80;;;6.88;;
7080;SDS011;3582;51.506;11.948;2023-03-29T07:38:23;9.27;;;6.28;;
7080;SDS011;3582;51.506;11.948;2023-03-29T07:40:49;6.40;;;4.97;;
7080;SDS011;3582;51.506;11.948;2023-03-29T07:43:15;7.13;;;5.38;;
7080;SDS011;3582;51.506;11.948;2023-03-29T07:45:42;6.40;;;4.85;;
7080;SDS011;3582;51.506;11.948;2023-03-29T07:48:08;7.47;;;5.18;;
7080;SDS011;3582;51.506;11.948;2023-03-29T07:50:34;8.23;;;6.63;;
7080;SDS011;3582;51.506;11.948;2023-03-29T07:53:00;13.10;;;6.03;;
7080;SDS011;3582;51.506;11.948;2023-03-29T07:55:26;9.15;;;7.68;;
7080;SDS011;3582;51.506;11.948;2023-03-29T07:57:53;7.90;;;7.10;;
7080;SDS011;3582;51.506;11.948;2023-03-29T08:00:19;6.80;;;6.00;;
7080;SDS011;3582;51.506;11.948;2023-03-29T08:02:47;9.45;;;6.78;;
7080;SDS011;3582;51.506;11.948;2023-03-29T08:05:13;7.65;;;5.72;;
7080;SDS011;3582;51.506;11.948;2023-03-29T08:07:40;26.20;;;8.45;;
7080;SDS011;3582;51.506;11.948;2023-03-29T08:10:07;10.85;;;5.85;;
7080;SDS011;3582;51.506;11.948;2023-03-29T08:12:34;9.45;;;6.45;;
7080;SDS011;3582;51.506;11.948;2023-03-29T08:15:00;12.02;;;6.38;;
7080;SDS011;3582;51.506;11.948;2023-03-29T08:17:26;8.02;;;6.65;;
7080;SDS011;3582;51.506;11.948;2023-03-29T08:19:52;6.33;;;5.80;;
7080;SDS011;3582;51.506;11.948;2023-03-29T08:22:18;12.38;;;5.75;;
7080;SDS011;3582;51.506;11.948;2023-03-29T08:24:44;14.68;;;5.97;;
7080;SDS011;3582;51.506;11.948;2023-03-29T08:27:10;8.63;;;6.40;;
7080;SDS011;3582;51.506;11.948;2023-03-29T08:29:36;6.83;;;6.10;;
7080;SDS011;3582;51.506;11.948;2023-03-29T08:32:02;8.70;;;5.93;;
7080;SDS011;3582;51.506;11.948;2023-03-29T08:34:28;10.60;;;7.45;;
7080;SDS011;3582;51.506;11.948;2023-03-29T08:36:55;7.28;;;6.03;;
7080;SDS011;3582;51.506;11.948;2023-03-29T08:39:21;13.10;;;6.53;;
7080;SDS011;3582;51.506;11.948;2023-03-29T08:41:51;12.10;;;6.50;;
7080;SDS011;3582;51.506;11.948;2023-03-29T08:49:38;8.20;;;7.43;;
7080;SDS011;3582;51.506;11.948;2023-03-29T08:52:11;8.45;;;6.03;;
7080;SDS011;3582;51.506;11.948;2023-03-29T08:54:40;21.17;;;7.13;;
7080;SDS011;3582;51.506;11.948;2023-03-29T08:57:49;6.10;;;5.50;;
7080;SDS011;3582;51.506;11.948;2023-03-29T08:59:57;10.00;;;6.63;;
7080;SDS011;3582;51.506;11.948;2023-03-29T09:02:25;7.60;;;6.85;;
7080;SDS011;3582;51.506;11.948;2023-03-29T09:04:51;6.50;;;5.88;;
7080;SDS011;3582;51.506;11.948;2023-03-29T09:07:21;7.20;;;6.60;;
7080;SDS011;3582;51.506;11.948;2023-03-29T09:09:46;10.73;;;5.57;;
7080;SDS011;3582;51.506;11.948;2023-03-29T09:12:18;7.17;;;6.43;;
7080;SDS011;3582;51.506;11.948;2023-03-29T09:17:31;7.70;;;6.88;;
7080;SDS011;3582;51.506;11.948;2023-03-29T09:22:48;10.10;;;7.40;;
7080;SDS011;3582;51.506;11.948;2023-03-29T09:27:57;10.85;;;5.95;;
7080;SDS011;3582;51.506;11.948;2023-03-29T09:30:38;10.75;;;7.05;;
7080;SDS011;3582;51.506;11.948;2023-03-29T09:33:13;7.47;;;6.78;;
7080;SDS011;3582;51.506;11.948;2023-03-29T09:35:42;8.68;;;6.03;;
7080;SDS011;3582;51.506;11.948;2023-03-29T09:38:12;15.32;;;7.20;;
7080;SDS011;3582;51.506;11.948;2023-03-29T09:40:47;7.50;;;6.72;;
7080;SDS011;3582;51.506;11.948;2023-03-29T09:43:15;6.47;;;5.70;;
7080;SDS011;3582;51.506;11.948;2023-03-29T09:45:42;8.03;;;7.23;;
7080;SDS011;3582;51.506;11.948;2023-03-29T09:48:12;8.65;;;6.50;;
7080;SDS011;3582;51.506;11.948;2023-03-29T09:50:45;8.57;;;6.30;;
7080;SDS011;3582;51.506;11.948;2023-03-29T09:53:13;8.37;;;6.97;;
7080;SDS011;3582;51.506;11.948;2023-03-29T09:55:39;6.03;;;5.43;;
7080;SDS011;3582;51.506;11.948;2023-03-29T09:58:11;6.60;;;5.97;;
7080;SDS011;3582;51.506;11.948;2023-03-29T10:00:38;10.63;;;7.13;;
7080;SDS011;3582;51.506;11.948;2023-03-29T10:03:04;6.37;;;5.87;;
7080;SDS011;3582;51.506;11.948;2023-03-29T10:05:31;8.00;;;6.40;;
7080;SDS011;3582;51.506;11.948;2023-03-29T10:08:00;8.17;;;7.23;;
7080;SDS011;3582;51.506;11.948;2023-03-29T10:10:28;7.17;;;6.57;;
7080;SDS011;3582;51.506;11.948;2023-03-29T10:13:03;6.60;;;6.10;;
7080;SDS011;3582;51.506;11.948;2023-03-29T10:15:29;17.13;;;8.00;;
7080;SDS011;3582;51.506;11.948;2023-03-29T10:17:59;8.60;;;6.60;;
7080;SDS011;3582;51.506;11.948;2023-03-29T10:20:27;6.70;;;6.10;;
7080;SDS011;3582;51.506;11.948;2023-03-29T10:22:57;8.53;;;7.33;;
7080;SDS011;3582;51.506;11.948;2023-03-29T10:25:24;11.33;;;7.30;;
7080;SDS011;3582;51.506;11.948;2023-03-29T10:27:51;8.43;;;7.50;;
7080;SDS011;3582;51.506;11.948;2023-03-29T10:30:20;8.03;;;7.23;;
7080;SDS011;3582;51.506;11.948;2023-03-29T10:32:50;7.07;;;6.47;;
7080;SDS011;3582;51.506;11.948;2023-03-29T10:35:38;6.93;;;6.30;;
7080;SDS011;3582;51.506;11.948;2023-03-29T10:38:11;9.33;;;6.93;;
7080;SDS011;3582;51.506;11.948;2023-03-29T10:40:40;8.40;;;5.87;;
7080;SDS011;3582;51.506;11.948;2023-03-29T10:43:21;7.50;;;6.80;;
7080;SDS011;3582;51.506;11.948;2023-03-29T10:45:47;7.70;;;7.07;;
7080;SDS011;3582;51.506;11.948;2023-03-29T10:48:15;7.40;;;6.50;;
7080;SDS011;3582;51.506;11.948;2023-03-29T10:50:41;7.27;;;6.57;;
7080;SDS011;3582;51.506;11.948;2023-03-29T10:53:19;8.07;;;6.60;;
7080;SDS011;3582;51.506;11.948;2023-03-29T10:58:36;6.57;;;5.83;;
7080;SDS011;3582;51.506;11.948;2023-03-29T11:01:03;10.70;;;6.00;;
7080;SDS011;3582;51.506;11.948;2023-03-29T11:11:10;9.80;;;5.70;;
7080;SDS011;3582;51.506;11.948;2023-03-29T11:13:44;6.93;;;5.80;;
7080;SDS011;3582;51.506;11.948;2023-03-29T11:19:04;8.10;;;6.70;;
7080;SDS011;3582;51.506;11.948;2023-03-29T11:21:46;6.13;;;5.53;;
7080;SDS011;3582;51.506;11.948;2023-03-29T11:24:23;7.53;;;6.50;;
7080;SDS011;3582;51.506;11.948;2023-03-29T11:29:30;11.80;;;6.87;;
7080;SDS011;3582;51.506;11.948;2023-03-29T11:34:47;9.23;;;5.47;;
7080;SDS011;3582;51.506;11.948;2023-03-29T11:42:37;6.30;;;5.70;;
7080;SDS011;3582;51.506;11.948;2023-03-29T11:45:04;5.50;;;4.90;;
7080;SDS011;3582;51.506;11.948;2023-03-29T11:47:32;5.93;;;5.27;;
7080;SDS011;3582;51.506;11.948;2023-03-29T11:50:18;6.27;;;4.63;;
7080;SDS011;3582;51.506;11.948;2023-03-29T11:52:47;6.83;;;6.23;;
7080;SDS011;3582;51.506;11.948;2023-03-29T11:55:20;7.50;;;6.00;;
7080;SDS011;3582;51.506;11.948;2023-03-29T11:57:57;10.93;;;6.07;;
7080;SDS011;3582;51.506;11.948;2023-03-29T12:02:54;6.90;;;6.20;;
7080;SDS011;3582;51.506;11.948;2023-03-29T12:10:25;6.40;;;5.80;;
7080;SDS011;3582;51.506;11.948;2023-03-29T12:13:14;6.73;;;5.90;;
7080;SDS011;3582;51.506;11.948;2023-03-29T12:15:47;8.13;;;7.27;;
7080;SDS011;3582;51.506;11.948;2023-03-29T12:18:16;8.23;;;6.20;;
7080;SDS011;3582;51.506;11.948;2023-03-29T12:20:45;6.33;;;5.80;;
7080;SDS011;3582;51.506;11.948;2023-03-29T12:23:14;6.70;;;6.10;;
7080;SDS011;3582;51.506;11.948;2023-03-29T12:28:26;8.57;;;6.40;;
7080;SDS011;3582;51.506;11.948;2023-03-29T12:31:32;10.23;;;6.37;;
7080;SDS011;3582;51.506;11.948;2023-03-29T12:34:11;8.23;;;5.37;;
7080;SDS011;3582;51.506;11.948;2023-03-29T12:39:25;13.63;;;6.57;;
7080;SDS011;3582;51.506;11.948;2023-03-29T12:41:51;12.53;;;6.40;;
7080;SDS011;3582;51.506;11.948;2023-03-29T12:44:19;6.40;;;5.63;;
7080;SDS011;3582;51.506;11.948;2023-03-29T12:46:49;16.90;;;6.20;;
7080;SDS011;3582;51.506;11.948;2023-03-29T12:49:25;6.87;;;4.97;;
7080;SDS011;3582;51.506;11.948;2023-03-29T12:51:52;8.10;;;5.80;;
7080;SDS011;3582;51.506;11.948;2023-03-29T12:54:20;11.53;;;8.53;;
7080;SDS011;3582;51.506;11.948;2023-03-29T12:59:23;6.03;;;5.47;;
7080;SDS011;3582;51.506;11.948;2023-03-29T13:02:00;11.30;;;4.37;;
7080;SDS011;3582;51.506;11.948;2023-03-29T13:04:35;6.50;;;4.67;;
7080;SDS011;3582;51.506;11.948;2023-03-29T13:07:01;5.30;;;4.00;;
7080;SDS011;3582;51.506;11.948;2023-03-29T13:09:45;10.70;;;4.80;;
7080;SDS011;3582;51.506;11.948;2023-03-29T13:14:41;5.20;;;4.70;;
7080;SDS011;3582;51.506;11.948;2023-03-29T13:17:10;4.20;;;3.70;;
7080;SDS011;3582;51.506;11.948;2023-03-29T13:20:02;4.70;;;4.20;;
7080;SDS011;3582;51.506;11.948;2023-03-29T13:22:38;5.23;;;4.40;;
7080;SDS011;3582;51.506;11.948;2023-03-29T13:27:38;5.80;;;4.93;;
7080;SDS011;3582;51.506;11.948;2023-03-29T13:33:10;5.63;;;4.70;;
7080;SDS011;3582;51.506;11.948;2023-03-29T13:38:22;4.90;;;4.27;;
7080;SDS011;3582;51.506;11.948;2023-03-29T13:40:56;4.40;;;4.00;;
7080;SDS011;3582;51.506;11.948;2023-03-29T13:43:29;6.53;;;4.70;;
7080;SDS011;3582;51.506;11.948;2023-03-29T13:50:58;8.03;;;4.67;;
7080;SDS011;3582;51.506;11.948;2023-03-29T13:55:57;5.40;;;4.87;;
7080;SDS011;3582;51.506;11.948;2023-03-29T14:01:26;5.07;;;4.37;;
7080;SDS011;3582;51.506;11.948;2023-03-29T14:03:54;9.73;;;5.90;;
7080;SDS011;3582;51.506;11.948;2023-03-29T14:06:28;9.80;;;5.13;;
7080;SDS011;3582;51.506;11.948;2023-03-29T14:08:56;4.87;;;4.40;;
7080;SDS011;3582;51.506;11.948;2023-03-29T14:11:24;5.47;;;4.17;;
7080;SDS011;3582;51.506;11.948;2023-03-29T14:14:00;4.90;;;4.40;;
7080;SDS011;3582;51.506;11.948;2023-03-29T14:16:30;8.80;;;5.70;;
7080;SDS011;3582;51.506;11.948;2023-03-29T14:19:02;8.40;;;4.10;;
7080;SDS011;3582;51.506;11.948;2023-03-29T14:21:29;9.10;;;4.87;;
7080;SDS011;3582;51.506;11.948;2023-03-29T14:24:01;4.00;;;3.60;;
7080;SDS011;3582;51.506;11.948;2023-03-29T14:26:31;4.60;;;4.17;;
7080;SDS011;3582;51.506;11.948;2023-03-29T14:28:59;6.00;;;3.60;;
7080;SDS011;3582;51.506;11.948;2023-03-29T14:31:29;5.00;;;4.13;;
7080;SDS011;3582;51.506;11.948;2023-03-29T14:33:56;4.73;;;3.73;;
7080;SDS011;3582;51.506;11.948;2023-03-29T14:36:23;4.83;;;4.43;;
7080;SDS011;3582;51.506;11.948;2023-03-29T14:38:51;6.37;;;5.47;;
7080;SDS011;3582;51.506;11.948;2023-03-29T14:41:18;8.20;;;4.47;;
7080;SDS011;3582;51.506;11.948;2023-03-29T14:43:44;6.67;;;3.83;;
7080;SDS011;3582;51.506;11.948;2023-03-29T14:46:11;4.57;;;4.07;;
7080;SDS011;3582;51.506;11.948;2023-03-29T14:48:38;4.20;;;3.90;;
7080;SDS011;3582;51.506;11.948;2023-03-29T14:51:04;4.40;;;4.00;;
7080;SDS011;3582;51.506;11.948;2023-03-29T14:53:30;5.90;;;4.10;;
7080;SDS011;3582;51.506;11.948;2023-03-29T14:55:58;4.37;;;3.97;;
7080;SDS011;3582;51.506;11.948;2023-03-29T14:58:33;7.73;;;4.67;;
7080;SDS011;3582;51.506;11.948;2023-03-29T15:01:03;4.33;;;3.93;;
7080;SDS011;3582;51.506;11.948;2023-03-29T15:03:29;4.93;;;4.53;;
7080;SDS011;3582;51.506;11.948;2023-03-29T15:08:26;7.30;;;3.80;;
7080;SDS011;3582;51.506;11.948;2023-03-29T15:10:53;6.37;;;3.67;;
7080;SDS011;3582;51.506;11.948;2023-03-29T15:13:20;3.93;;;3.63;;
7080;SDS011;3582;51.506;11.948;2023-03-29T15:15:48;5.47;;;3.50;;
7080;SDS011;3582;51.506;11.948;2023-03-29T15:18:16;4.63;;;3.60;;
7080;SDS011;3582;51.506;11.948;2023-03-29T15:20:43;4.23;;;3.33;;
7080;SDS011;3582;51.506;11.948;2023-03-29T15:25:45;4.77;;;3.40;;
7080;SDS011;3582;51.506;11.948;2023-03-29T15:28:26;3.83;;;3.53;;
7080;SDS011;3582;51.506;11.948;2023-03-29T15:30:56;6.33;;;4.47;;
7080;SDS011;3582;51.506;11.948;2023-03-29T15:33:22;3.90;;;3.60;;
7080;SDS011;3582;51.506;11.948;2023-03-29T15:35:51;3.40;;;3.03;;
7080;SDS011;3582;51.506;11.948;2023-03-29T15:38:18;5.17;;;4.70;;
7080;SDS011;3582;51.506;11.948;2023-03-29T15:40:45;5.10;;;3.93;;
7080;SDS011;3582;51.506;11.948;2023-03-29T15:43:11;6.53;;;4.57;;
7080;SDS011;3582;51.506;11.948;2023-03-29T15:45:37;6.10;;;4.03;;
7080;SDS011;3582;51.506;11.948;2023-03-29T15:48:16;5.37;;;4.70;;
7080;SDS011;3582;51.506;11.948;2023-03-29T15:50:43;4.13;;;3.83;;
7080;SDS011;3582;51.506;11.948;2023-03-29T15:53:09;4.90;;;4.50;;
7080;SDS011;3582;51.506;11.948;2023-03-29T15:55:37;5.20;;;3.83;;
7080;SDS011;3582;51.506;11.948;2023-03-29T15:58:04;4.20;;;3.80;;
7080;SDS011;3582;51.506;11.948;2023-03-29T16:00:30;6.50;;;4.93;;
7080;SDS011;3582;51.506;11.948;2023-03-29T16:02:56;10.07;;;5.20;;
7080;SDS011;3582;51.506;11.948;2023-03-29T16:05:22;8.60;;;5.87;;
7080;SDS011;3582;51.506;11.948;2023-03-29T16:07:48;8.40;;;5.07;;
7080;SDS011;3582;51.506;11.948;2023-03-29T16:10:14;18.77;;;6.70;;
7080;SDS011;3582;51.506;11.948;2023-03-29T16:12:40;10.67;;;5.27;;
7080;SDS011;3582;51.506;11.948;2023-03-29T16:15:11;7.13;;;5.40;;
7080;SDS011;3582;51.506;11.948;2023-03-29T16:17:38;7.60;;;4.83;;
7080;SDS011;3582;51.506;11.948;2023-03-29T16:20:04;10.63;;;6.37;;
7080;SDS011;3582;51.506;11.948;2023-03-29T16:22:31;5.60;;;5.03;;
7080;SDS011;3582;51.506;11.948;2023-03-29T16:24:57;8.17;;;5.73;;
7080;SDS011;3582;51.506;11.948;2023-03-29T16:27:23;9.33;;;5.10;;
7080;SDS011;3582;51.506;11.948;2023-03-29T16:29:49;6.83;;;5.73;;
7080;SDS011;3582;51.506;11.948;2023-03-29T16:32:15;6.20;;;4.77;;
7080;SDS011;3582;51.506;11.948;2023-03-29T16:34:41;9.97;;;7.00;;
7080;SDS011;3582;51.506;11.948;2023-03-29T16:37:07;12.00;;;7.80;;
7080;SDS011;3582;51.506;11.948;2023-03-29T16:39:33;7.53;;;6.40;;
7080;SDS011;3582;51.506;11.948;2023-03-29T16:41:59;12.00;;;6.70;;
7080;SDS011;3582;51.506;11.948;2023-03-29T16:44:25;10.10;;;5.33;;
7080;SDS011;3582;51.506;11.948;2023-03-29T16:46:52;5.70;;;5.10;;
7080;SDS011;3582;51.506;11.948;2023-03-29T16:49:18;8.20;;;5.80;;